sensor_id;sensor_type;location;lat;lon;timestamp;P1;durP1;ratioP1;P2;durP2;ratioP2
52918;SDS011;38793;52.690;6.812;2023-08-20T00:00:30;8.60;;;3.88;;
52918;SDS011;38793;52.690;6.812;2023-08-20T00:02:58;5.40;;;3.47;;
52918;SDS011;38793;52.690;6.812;2023-08-20T00:05:28;8.00;;;3.53;;
52918;SDS011;38793;52.690;6.812;2023-08-20T00:07:55;7.38;;;4.45;;
52918;SDS011;38793;52.690;6.812;2023-08-20T00:10:20;13.95;;;4.85;;
52918;SDS011;38793;52.690;6.812;2023-08-20T00:12:46;8.80;;;4.55;;
52918;SDS011;38793;52.690;6.812;2023-08-20T00:15:11;10.50;;;5.20;;
52918;SDS011;38793;52.690;6.812;2023-08-20T00:17:38;14.52;;;5.22;;
52918;SDS011;38793;52.690;6.812;2023-08-20T00:20:05;12.60;;;4.97;;
52918;SDS011;38793;52.690;6.812;2023-08-20T00:22:38;13.52;;;6.03;;
52918;SDS011;38793;52.690;6.812;2023-08-20T00:25:05;8.82;;;4.82;;
52918;SDS011;38793;52.690;6.812;2023-08-20T00:27:32;11.05;;;5.70;;
52918;SDS011;38793;52.690;6.812;2023-08-20T00:29:58;10.75;;;4.97;;
52918;SDS011;38793;52.690;6.812;2023-08-20T00:32:24;11.85;;;5.53;;
52918;SDS011;38793;52.690;6.812;2023-08-20T00:34:49;9.68;;;5.10;;
52918;SDS011;38793;52.690;6.812;2023-08-20T00:37:15;11.10;;;5.45;;
52918;SDS011;38793;52.690;6.812;2023-08-20T00:39:41;13.20;;;5.18;;
52918;SDS011;38793;52.690;6.812;2023-08-20T00:42:06;14.07;;;5.55;;
52918;SDS011;38793;52.690;6.812;2023-08-20T00:44:33;8.27;;;3.47;;
52918;SDS011;38793;52.690;6.812;2023-08-20T00:47:00;8.02;;;4.20;;
52918;SDS011;38793;52.690;6.812;2023-08-20T00:49:27;11.60;;;4.28;;
52918;SDS011;38793;52.690;6.812;2023-08-20T00:51:54;5.78;;;3.08;;
52918;SDS011;38793;52.690;6.812;2023-08-20T00:54:20;10.32;;;4.53;;
52918;SDS011;38793;52.690;6.812;2023-08-20T00:56:48;5.45;;;4.07;;
52918;SDS011;38793;52.690;6.812;2023-08-20T00:59:15;9.00;;;4.05;;
52918;SDS011;38793;52.690;6.812;2023-08-20T01:01:41;9.77;;;3.85;;
52918;SDS011;38793;52.690;6.812;2023-08-20T01:04:07;11.52;;;4.95;;
52918;SDS011;38793;52.690;6.812;2023-08-20T01:06:36;15.40;;;5.47;;
52918;SDS011;38793;52.690;6.812;2023-08-20T01:09:23;10.82;;;6.35;;
52918;SDS011;38793;52.690;6.812;2023-08-20T01:11:59;20.83;;;6.93;;
52918;SDS011;38793;52.690;6.812;2023-08-20T01:14:27;14.35;;;7.28;;
52918;SDS011;38793;52.690;6.812;2023-08-20T01:16:53;18.80;;;8.00;;
52918;SDS011;38793;52.690;6.812;2023-08-20T01:19:19;10.70;;;6.40;;
52918;SDS011;38793;52.690;6.812;2023-08-20T01:29:54;8.25;;;4.65;;
52918;SDS011;38793;52.690;6.812;2023-08-20T01:32:20;10.18;;;5.25;;
52918;SDS011;38793;52.690;6.812;2023-08-20T01:34:48;7.70;;;4.22;;
52918;SDS011;38793;52.690;6.812;2023-08-20T01:37:13;4.93;;;3.58;;
52918;SDS011;38793;52.690;6.812;2023-08-20T01:39:39;11.00;;;4.40;;
52918;SDS011;38793;52.690;6.812;2023-08-20T01:42:05;11.20;;;4.60;;
52918;SDS011;38793;52.690;6.812;2023-08-20T01:46:56;11.45;;;4.30;;
52918;SDS011;38793;52.690;6.812;2023-08-20T01:51:48;4.32;;;3.95;;
52918;SDS011;38793;52.690;6.812;2023-08-20T01:54:14;3.55;;;3.22;;
52918;SDS011;38793;52.690;6.812;2023-08-20T01:56:39;5.65;;;3.00;;
52918;SDS011;38793;52.690;6.812;2023-08-20T01:59:05;2.78;;;2.58;;
52918;SDS011;38793;52.690;6.812;2023-08-20T02:01:31;4.32;;;3.03;;
52918;SDS011;38793;52.690;6.812;2023-08-20T02:03:57;15.80;;;3.47;;
52918;SDS011;38793;52.690;6.812;2023-08-20T02:06:22;11.20;;;6.50;;
52918;SDS011;38793;52.690;6.812;2023-08-20T02:08:48;10.90;;;6.85;;
52918;SDS011;38793;52.690;6.812;2023-08-20T02:11:13;14.60;;;5.50;;
52918;SDS011;38793;52.690;6.812;2023-08-20T02:13:39;10.35;;;4.97;;
52918;SDS011;38793;52.690;6.812;2023-08-20T02:16:05;3.53;;;1.60;;
52918;SDS011;38793;52.690;6.812;2023-08-20T02:18:31;4.03;;;2.60;;
52918;SDS011;38793;52.690;6.812;2023-08-20T02:20:57;4.80;;;2.47;;
52918;SDS011;38793;52.690;6.812;2023-08-20T02:23:23;5.43;;;2.53;;
52918;SDS011;38793;52.690;6.812;2023-08-20T02:25:48;6.18;;;3.10;;
52918;SDS011;38793;52.690;6.812;2023-08-20T02:28:14;9.80;;;4.85;;
52918;SDS011;38793;52.690;6.812;2023-08-20T02:30:41;8.63;;;4.45;;
52918;SDS011;38793;52.690;6.812;2023-08-20T02:33:07;8.43;;;4.05;;
52918;SDS011;38793;52.690;6.812;2023-08-20T02:35:33;8.73;;;4.28;;
52918;SDS011;38793;52.690;6.812;2023-08-20T02:37:59;6.57;;;4.50;;
52918;SDS011;38793;52.690;6.812;2023-08-20T02:40:24;10.13;;;4.70;;
52918;SDS011;38793;52.690;6.812;2023-08-20T02:42:50;6.93;;;4.10;;
52918;SDS011;38793;52.690;6.812;2023-08-20T02:45:15;8.20;;;4.78;;
52918;SDS011;38793;52.690;6.812;2023-08-20T02:47:41;6.72;;;5.63;;
52918;SDS011;38793;52.690;6.812;2023-08-20T02:50:07;9.10;;;6.35;;
52918;SDS011;38793;52.690;6.812;2023-08-20T02:52:32;10.43;;;6.60;;
52918;SDS011;38793;52.690;6.812;2023-08-20T02:54:58;12.98;;;7.65;;
52918;SDS011;38793;52.690;6.812;2023-08-20T02:57:24;6.90;;;5.30;;
52918;SDS011;38793;52.690;6.812;2023-08-20T02:59:50;4.63;;;4.22;;
52918;SDS011;38793;52.690;6.812;2023-08-20T03:04:41;6.72;;;6.05;;
52918;SDS011;38793;52.690;6.812;2023-08-20T03:07:06;11.63;;;7.40;;
52918;SDS011;38793;52.690;6.812;2023-08-20T03:09:32;136.57;;;11.95;;
52918;SDS011;38793;52.690;6.812;2023-08-20T03:11:58;10.35;;;5.53;;
52918;SDS011;38793;52.690;6.812;2023-08-20T03:14:23;18.77;;;5.35;;
52918;SDS011;38793;52.690;6.812;2023-08-20T03:16:49;5.35;;;4.85;;
52918;SDS011;38793;52.690;6.812;2023-08-20T03:19:14;7.70;;;5.13;;
52918;SDS011;38793;52.690;6.812;2023-08-20T03:21:41;9.70;;;5.97;;
52918;SDS011;38793;52.690;6.812;2023-08-20T03:24:06;8.98;;;5.45;;
52918;SDS011;38793;52.690;6.812;2023-08-20T03:26:32;6.07;;;5.57;;
52918;SDS011;38793;52.690;6.812;2023-08-20T03:28:58;10.43;;;5.68;;
52918;SDS011;38793;52.690;6.812;2023-08-20T03:31:24;10.95;;;5.93;;
52918;SDS011;38793;52.690;6.812;2023-08-20T03:33:50;8.90;;;5.40;;
52918;SDS011;38793;52.690;6.812;2023-08-20T03:36:15;9.05;;;5.15;;
52918;SDS011;38793;52.690;6.812;2023-08-20T03:38:41;9.95;;;6.50;;
52918;SDS011;38793;52.690;6.812;2023-08-20T03:41:07;10.30;;;5.63;;
52918;SDS011;38793;52.690;6.812;2023-08-20T03:43:32;8.00;;;6.57;;
52918;SDS011;38793;52.690;6.812;2023-08-20T03:45:58;7.65;;;5.10;;
52918;SDS011;38793;52.690;6.812;2023-08-20T03:48:24;9.10;;;5.07;;
52918;SDS011;38793;52.690;6.812;2023-08-20T03:50:49;10.05;;;6.13;;
52918;SDS011;38793;52.690;6.812;2023-08-20T03:53:15;5.88;;;4.93;;
52918;SDS011;38793;52.690;6.812;2023-08-20T03:55:40;4.90;;;4.50;;
52918;SDS011;38793;52.690;6.812;2023-08-20T03:58:06;4.72;;;4.10;;
52918;SDS011;38793;52.690;6.812;2023-08-20T04:00:34;4.13;;;3.60;;
52918;SDS011;38793;52.690;6.812;2023-08-20T04:03:00;3.58;;;2.72;;
52918;SDS011;38793;52.690;6.812;2023-08-20T04:05:25;1.73;;;1.63;;
52918;SDS011;38793;52.690;6.812;2023-08-20T04:07:51;3.63;;;2.72;;
52918;SDS011;38793;52.690;6.812;2023-08-20T04:10:16;2.15;;;1.95;;
52918;SDS011;38793;52.690;6.812;2023-08-20T04:12:42;3.03;;;2.60;;
52918;SDS011;38793;52.690;6.812;2023-08-20T04:15:07;6.93;;;1.30;;
52918;SDS011;38793;52.690;6.812;2023-08-20T04:17:33;1.80;;;1.70;;
52918;SDS011;38793;52.690;6.812;2023-08-20T04:19:59;2.42;;;1.83;;
52918;SDS011;38793;52.690;6.812;2023-08-20T04:22:24;1.80;;;1.70;;
52918;SDS011;38793;52.690;6.812;2023-08-20T04:24:50;3.58;;;3.05;;
52918;SDS011;38793;52.690;6.812;2023-08-20T04:27:16;13.93;;;9.18;;
52918;SDS011;38793;52.690;6.812;2023-08-20T04:29:42;8.10;;;5.88;;
52918;SDS011;38793;52.690;6.812;2023-08-20T04:32:10;11.32;;;7.40;;
52918;SDS011;38793;52.690;6.812;2023-08-20T04:34:36;9.10;;;7.88;;
52918;SDS011;38793;52.690;6.812;2023-08-20T04:37:01;15.52;;;10.52;;
52918;SDS011;38793;52.690;6.812;2023-08-20T04:39:27;17.98;;;11.93;;
52918;SDS011;38793;52.690;6.812;2023-08-20T04:41:52;17.40;;;11.13;;
52918;SDS011;38793;52.690;6.812;2023-08-20T04:44:18;17.08;;;10.77;;
52918;SDS011;38793;52.690;6.812;2023-08-20T04:46:43;13.82;;;10.80;;
52918;SDS011;38793;52.690;6.812;2023-08-20T04:49:09;11.20;;;10.05;;
52918;SDS011;38793;52.690;6.812;2023-08-20T04:51:35;11.90;;;9.30;;
52918;SDS011;38793;52.690;6.812;2023-08-20T04:54:00;11.95;;;8.00;;
52918;SDS011;38793;52.690;6.812;2023-08-20T04:56:26;9.60;;;7.40;;
52918;SDS011;38793;52.690;6.812;2023-08-20T04:58:51;7.35;;;6.30;;
52918;SDS011;38793;52.690;6.812;2023-08-20T05:01:17;7.60;;;6.57;;
52918;SDS011;38793;52.690;6.812;2023-08-20T05:03:42;11.23;;;6.57;;
52918;SDS011;38793;52.690;6.812;2023-08-20T05:06:08;10.70;;;8.73;;
52918;SDS011;38793;52.690;6.812;2023-08-20T05:08:34;11.68;;;8.98;;
52918;SDS011;38793;52.690;6.812;2023-08-20T05:10:59;12.10;;;8.88;;
52918;SDS011;38793;52.690;6.812;2023-08-20T05:13:26;10.88;;;8.68;;
52918;SDS011;38793;52.690;6.812;2023-08-20T05:15:51;13.38;;;9.43;;
52918;SDS011;38793;52.690;6.812;2023-08-20T05:18:17;12.05;;;10.82;;
52918;SDS011;38793;52.690;6.812;2023-08-20T05:20:42;17.33;;;12.05;;
52918;SDS011;38793;52.690;6.812;2023-08-20T05:23:08;20.67;;;12.05;;
52918;SDS011;38793;52.690;6.812;2023-08-20T05:25:34;17.38;;;11.98;;
52918;SDS011;38793;52.690;6.812;2023-08-20T05:27:59;18.65;;;12.02;;
52918;SDS011;38793;52.690;6.812;2023-08-20T05:30:26;15.63;;;11.57;;
52918;SDS011;38793;52.690;6.812;2023-08-20T05:32:52;17.80;;;12.20;;
52918;SDS011;38793;52.690;6.812;2023-08-20T05:35:17;16.63;;;13.35;;
52918;SDS011;38793;52.690;6.812;2023-08-20T05:37:43;17.80;;;12.75;;
52918;SDS011;38793;52.690;6.812;2023-08-20T05:40:08;16.98;;;12.10;;
52918;SDS011;38793;52.690;6.812;2023-08-20T05:45:00;16.27;;;11.70;;
52918;SDS011;38793;52.690;6.812;2023-08-20T05:47:25;19.60;;;12.32;;
52918;SDS011;38793;52.690;6.812;2023-08-20T05:49:51;14.02;;;11.38;;
52918;SDS011;38793;52.690;6.812;2023-08-20T05:52:16;15.93;;;13.23;;
52918;SDS011;38793;52.690;6.812;2023-08-20T05:54:42;13.80;;;11.90;;
52918;SDS011;38793;52.690;6.812;2023-08-20T05:57:08;21.13;;;13.05;;
52918;SDS011;38793;52.690;6.812;2023-08-20T05:59:33;22.02;;;13.60;;
52918;SDS011;38793;52.690;6.812;2023-08-20T06:02:00;21.58;;;13.20;;
52918;SDS011;38793;52.690;6.812;2023-08-20T06:04:26;17.13;;;12.07;;
52918;SDS011;38793;52.690;6.812;2023-08-20T06:06:52;15.55;;;12.65;;
52918;SDS011;38793;52.690;6.812;2023-08-20T06:09:17;25.05;;;13.10;;
52918;SDS011;38793;52.690;6.812;2023-08-20T06:11:43;17.90;;;14.07;;
52918;SDS011;38793;52.690;6.812;2023-08-20T06:14:09;18.17;;;12.82;;
52918;SDS011;38793;52.690;6.812;2023-08-20T06:16:34;15.13;;;12.35;;
52918;SDS011;38793;52.690;6.812;2023-08-20T06:19:00;20.70;;;12.57;;
52918;SDS011;38793;52.690;6.812;2023-08-20T06:21:25;23.27;;;13.77;;
52918;SDS011;38793;52.690;6.812;2023-08-20T06:23:51;16.73;;;13.63;;
52918;SDS011;38793;52.690;6.812;2023-08-20T06:26:17;20.70;;;13.43;;
52918;SDS011;38793;52.690;6.812;2023-08-20T06:31:09;23.95;;;13.63;;
52918;SDS011;38793;52.690;6.812;2023-08-20T06:33:35;17.85;;;12.73;;
52918;SDS011;38793;52.690;6.812;2023-08-20T06:36:00;19.02;;;10.95;;
52918;SDS011;38793;52.690;6.812;2023-08-20T06:38:26;13.23;;;11.75;;
52918;SDS011;38793;52.690;6.812;2023-08-20T06:40:52;14.48;;;9.88;;
52918;SDS011;38793;52.690;6.812;2023-08-20T06:43:18;19.25;;;11.10;;
52918;SDS011;38793;52.690;6.812;2023-08-20T06:45:44;18.02;;;10.45;;
52918;SDS011;38793;52.690;6.812;2023-08-20T06:48:09;18.38;;;9.73;;
52918;SDS011;38793;52.690;6.812;2023-08-20T06:50:35;20.00;;;9.60;;
52918;SDS011;38793;52.690;6.812;2023-08-20T06:55:26;17.52;;;11.68;;
52918;SDS011;38793;52.690;6.812;2023-08-20T06:57:51;17.02;;;10.88;;
52918;SDS011;38793;52.690;6.812;2023-08-20T07:00:17;14.85;;;11.45;;
52918;SDS011;38793;52.690;6.812;2023-08-20T07:02:44;12.88;;;10.82;;
52918;SDS011;38793;52.690;6.812;2023-08-20T07:05:09;13.65;;;9.75;;
52918;SDS011;38793;52.690;6.812;2023-08-20T07:07:35;17.00;;;11.20;;
52918;SDS011;38793;52.690;6.812;2023-08-20T07:12:28;19.58;;;10.38;;
52918;SDS011;38793;52.690;6.812;2023-08-20T07:17:19;16.05;;;9.13;;
52918;SDS011;38793;52.690;6.812;2023-08-20T07:22:10;18.00;;;9.07;;
52918;SDS011;38793;52.690;6.812;2023-08-20T07:24:36;15.68;;;7.72;;
52918;SDS011;38793;52.690;6.812;2023-08-20T07:29:29;8.93;;;5.15;;
52918;SDS011;38793;52.690;6.812;2023-08-20T07:34:21;13.38;;;4.78;;
52918;SDS011;38793;52.690;6.812;2023-08-20T07:39:12;12.38;;;4.95;;
52918;SDS011;38793;52.690;6.812;2023-08-20T07:41:39;10.35;;;4.65;;
52918;SDS011;38793;52.690;6.812;2023-08-20T07:46:31;10.98;;;4.45;;
52918;SDS011;38793;52.690;6.812;2023-08-20T07:51:22;14.05;;;5.35;;
52918;SDS011;38793;52.690;6.812;2023-08-20T07:56:13;9.88;;;3.78;;
52918;SDS011;38793;52.690;6.812;2023-08-20T08:01:04;12.60;;;3.88;;
52918;SDS011;38793;52.690;6.812;2023-08-20T08:05:55;7.32;;;2.92;;
52918;SDS011;38793;52.690;6.812;2023-08-20T08:10:47;8.02;;;3.40;;
52918;SDS011;38793;52.690;6.812;2023-08-20T08:15:46;10.80;;;2.38;;
52918;SDS011;38793;52.690;6.812;2023-08-20T08:20:37;8.18;;;2.53;;
52918;SDS011;38793;52.690;6.812;2023-08-20T08:25:29;9.48;;;2.30;;
52918;SDS011;38793;52.690;6.812;2023-08-20T08:30:20;9.50;;;1.98;;
52918;SDS011;38793;52.690;6.812;2023-08-20T08:35:11;4.93;;;1.05;;
52918;SDS011;38793;52.690;6.812;2023-08-20T08:40:02;6.10;;;1.33;;
52918;SDS011;38793;52.690;6.812;2023-08-20T08:42:32;4.40;;;0.50;;
52918;SDS011;38793;52.690;6.812;2023-08-20T08:45:01;5.05;;;0.85;;
52918;SDS011;38793;52.690;6.812;2023-08-20T08:47:28;6.40;;;1.27;;
52918;SDS011;38793;52.690;6.812;2023-08-20T08:49:54;8.77;;;1.13;;
52918;SDS011;38793;52.690;6.812;2023-08-20T08:52:24;8.05;;;1.42;;
52918;SDS011;38793;52.690;6.812;2023-08-20T08:54:50;6.55;;;1.45;;
52918;SDS011;38793;52.690;6.812;2023-08-20T08:57:19;5.63;;;0.77;;
52918;SDS011;38793;52.690;6.812;2023-08-20T09:02:11;4.50;;;0.40;;
52918;SDS011;38793;52.690;6.812;2023-08-20T09:04:41;4.88;;;0.50;;
52918;SDS011;38793;52.690;6.812;2023-08-20T09:07:14;3.40;;;0.75;;
52918;SDS011;38793;52.690;6.812;2023-08-20T09:09:46;4.05;;;0.50;;
52918;SDS011;38793;52.690;6.812;2023-08-20T09:12:15;3.75;;;0.57;;
52918;SDS011;38793;52.690;6.812;2023-08-20T09:14:51;3.10;;;0.80;;
52918;SDS011;38793;52.690;6.812;2023-08-20T09:17:17;4.60;;;0.43;;
52918;SDS011;38793;52.690;6.812;2023-08-20T09:19:44;4.57;;;0.80;;
52918;SDS011;38793;52.690;6.812;2023-08-20T09:22:11;3.28;;;0.70;;
52918;SDS011;38793;52.690;6.812;2023-08-20T09:24:44;5.68;;;1.02;;
52918;SDS011;38793;52.690;6.812;2023-08-20T09:27:12;5.28;;;0.85;;
52918;SDS011;38793;52.690;6.812;2023-08-20T09:32:21;3.65;;;0.50;;
52918;SDS011;38793;52.690;6.812;2023-08-20T09:34:49;2.88;;;0.90;;
52918;SDS011;38793;52.690;6.812;2023-08-20T09:37:16;2.33;;;0.70;;
52918;SDS011;38793;52.690;6.812;2023-08-20T09:39:43;4.45;;;0.90;;
52918;SDS011;38793;52.690;6.812;2023-08-20T09:42:09;1.63;;;0.50;;
52918;SDS011;38793;52.690;6.812;2023-08-20T09:44:36;3.97;;;0.70;;
52918;SDS011;38793;52.690;6.812;2023-08-20T09:47:07;5.30;;;0.65;;
52918;SDS011;38793;52.690;6.812;2023-08-20T09:49:41;3.63;;;0.40;;
52918;SDS011;38793;52.690;6.812;2023-08-20T09:52:09;4.70;;;0.75;;
52918;SDS011;38793;52.690;6.812;2023-08-20T09:54:59;4.25;;;0.55;;
52918;SDS011;38793;52.690;6.812;2023-08-20T09:57:38;6.10;;;0.82;;
52918;SDS011;38793;52.690;6.812;2023-08-20T10:00:05;1.85;;;0.40;;
52918;SDS011;38793;52.690;6.812;2023-08-20T10:02:34;1.20;;;0.32;;
52918;SDS011;38793;52.690;6.812;2023-08-20T10:05:02;2.47;;;0.30;;
52918;SDS011;38793;52.690;6.812;2023-08-20T10:07:30;2.95;;;0.57;;
52918;SDS011;38793;52.690;6.812;2023-08-20T10:09:56;2.58;;;0.50;;
52918;SDS011;38793;52.690;6.812;2023-08-20T10:12:28;1.60;;;0.20;;
52918;SDS011;38793;52.690;6.812;2023-08-20T10:14:58;2.80;;;0.50;;
52918;SDS011;38793;52.690;6.812;2023-08-20T10:17:24;3.40;;;0.40;;
52918;SDS011;38793;52.690;6.812;2023-08-20T10:19:53;6.35;;;0.40;;
52918;SDS011;38793;52.690;6.812;2023-08-20T10:22:19;5.20;;;0.30;;
52918;SDS011;38793;52.690;6.812;2023-08-20T10:24:48;3.40;;;0.50;;
52918;SDS011;38793;52.690;6.812;2023-08-20T10:27:25;2.05;;;0.30;;
52918;SDS011;38793;52.690;6.812;2023-08-20T10:29:53;4.25;;;0.40;;
52918;SDS011;38793;52.690;6.812;2023-08-20T10:32:19;5.57;;;0.55;;
52918;SDS011;38793;52.690;6.812;2023-08-20T10:34:52;4.28;;;0.40;;
52918;SDS011;38793;52.690;6.812;2023-08-20T10:37:26;4.95;;;1.05;;
52918;SDS011;38793;52.690;6.812;2023-08-20T10:39:55;4.63;;;0.60;;
52918;SDS011;38793;52.690;6.812;2023-08-20T10:42:28;3.92;;;0.30;;
52918;SDS011;38793;52.690;6.812;2023-08-20T10:45:01;1.63;;;0.20;;
52918;SDS011;38793;52.690;6.812;2023-08-20T10:50:09;3.08;;;0.50;;
52918;SDS011;38793;52.690;6.812;2023-08-20T10:52:39;2.90;;;0.30;;
52918;SDS011;38793;52.690;6.812;2023-08-20T10:55:06;4.35;;;0.50;;
52918;SDS011;38793;52.690;6.812;2023-08-20T10:57:34;1.75;;;0.25;;
52918;SDS011;38793;52.690;6.812;2023-08-20T11:00:01;4.07;;;0.38;;
52918;SDS011;38793;52.690;6.812;2023-08-20T11:02:34;4.07;;;0.50;;
52918;SDS011;38793;52.690;6.812;2023-08-20T11:05:01;2.35;;;0.30;;
52918;SDS011;38793;52.690;6.812;2023-08-20T11:07:29;2.72;;;0.30;;
52918;SDS011;38793;52.690;6.812;2023-08-20T11:09:56;3.30;;;0.30;;
52918;SDS011;38793;52.690;6.812;2023-08-20T11:12:22;3.55;;;0.38;;
52918;SDS011;38793;52.690;6.812;2023-08-20T11:14:48;5.03;;;0.30;;
52918;SDS011;38793;52.690;6.812;2023-08-20T11:17:14;3.13;;;0.47;;
52918;SDS011;38793;52.690;6.812;2023-08-20T11:19:40;3.67;;;0.40;;
52918;SDS011;38793;52.690;6.812;2023-08-20T11:22:06;3.13;;;0.40;;
52918;SDS011;38793;52.690;6.812;2023-08-20T11:24:33;2.13;;;0.38;;
52918;SDS011;38793;52.690;6.812;2023-08-20T11:26:58;3.55;;;0.52;;
52918;SDS011;38793;52.690;6.812;2023-08-20T11:29:25;5.22;;;0.63;;
52918;SDS011;38793;52.690;6.812;2023-08-20T11:31:51;7.13;;;0.60;;
52918;SDS011;38793;52.690;6.812;2023-08-20T11:34:18;1.98;;;0.32;;
52918;SDS011;38793;52.690;6.812;2023-08-20T11:36:44;3.85;;;0.50;;
52918;SDS011;38793;52.690;6.812;2023-08-20T11:39:10;3.30;;;0.28;;
52918;SDS011;38793;52.690;6.812;2023-08-20T11:41:36;6.22;;;0.40;;
52918;SDS011;38793;52.690;6.812;2023-08-20T11:44:02;3.13;;;0.30;;
52918;SDS011;38793;52.690;6.812;2023-08-20T11:46:28;2.38;;;0.30;;
52918;SDS011;38793;52.690;6.812;2023-08-20T11:49:07;2.65;;;0.40;;
52918;SDS011;38793;52.690;6.812;2023-08-20T11:51:41;3.10;;;0.30;;
52918;SDS011;38793;52.690;6.812;2023-08-20T11:54:12;4.07;;;0.40;;
52918;SDS011;38793;52.690;6.812;2023-08-20T11:56:46;2.60;;;0.20;;
52918;SDS011;38793;52.690;6.812;2023-08-20T11:59:12;1.70;;;0.10;;
52918;SDS011;38793;52.690;6.812;2023-08-20T12:01:39;1.80;;;0.20;;
52918;SDS011;38793;52.690;6.812;2023-08-20T12:04:09;0.85;;;0.20;;
52918;SDS011;38793;52.690;6.812;2023-08-20T12:06:36;3.55;;;0.17;;
52918;SDS011;38793;52.690;6.812;2023-08-20T12:09:24;0.95;;;0.30;;
52918;SDS011;38793;52.690;6.812;2023-08-20T12:11:51;0.50;;;0.10;;
52918;SDS011;38793;52.690;6.812;2023-08-20T12:14:17;2.45;;;0.30;;
52918;SDS011;38793;52.690;6.812;2023-08-20T12:16:44;1.13;;;0.20;;
52918;SDS011;38793;52.690;6.812;2023-08-20T12:19:10;1.50;;;0.20;;
52918;SDS011;38793;52.690;6.812;2023-08-20T12:21:35;0.90;;;0.20;;
52918;SDS011;38793;52.690;6.812;2023-08-20T12:24:01;0.68;;;0.15;;
52918;SDS011;38793;52.690;6.812;2023-08-20T12:26:28;3.53;;;0.20;;
52918;SDS011;38793;52.690;6.812;2023-08-20T12:28:53;1.70;;;0.20;;
52918;SDS011;38793;52.690;6.812;2023-08-20T12:31:19;1.60;;;0.20;;
52918;SDS011;38793;52.690;6.812;2023-08-20T12:33:45;2.45;;;0.13;;
52918;SDS011;38793;52.690;6.812;2023-08-20T12:36:11;1.55;;;0.20;;
52918;SDS011;38793;52.690;6.812;2023-08-20T12:38:36;2.88;;;0.22;;
52918;SDS011;38793;52.690;6.812;2023-08-20T12:41:02;3.03;;;0.50;;
52918;SDS011;38793;52.690;6.812;2023-08-20T12:43:29;2.00;;;0.10;;
52918;SDS011;38793;52.690;6.812;2023-08-20T12:45:55;3.67;;;0.20;;
52918;SDS011;38793;52.690;6.812;2023-08-20T12:48:20;1.10;;;0.20;;
52918;SDS011;38793;52.690;6.812;2023-08-20T12:50:46;0.98;;;0.10;;
52918;SDS011;38793;52.690;6.812;2023-08-20T12:53:11;2.55;;;0.17;;
52918;SDS011;38793;52.690;6.812;2023-08-20T12:55:38;2.47;;;0.38;;
52918;SDS011;38793;52.690;6.812;2023-08-20T12:58:03;1.52;;;0.10;;
52918;SDS011;38793;52.690;6.812;2023-08-20T13:00:29;1.00;;;0.50;;
52918;SDS011;38793;52.690;6.812;2023-08-20T13:02:55;2.45;;;0.20;;
52918;SDS011;38793;52.690;6.812;2023-08-20T13:05:22;1.20;;;0.20;;
52918;SDS011;38793;52.690;6.812;2023-08-20T13:07:48;1.70;;;0.20;;
52918;SDS011;38793;52.690;6.812;2023-08-20T13:10:14;1.17;;;0.20;;
52918;SDS011;38793;52.690;6.812;2023-08-20T13:12:40;1.30;;;0.20;;
52918;SDS011;38793;52.690;6.812;2023-08-20T13:15:07;3.03;;;0.30;;
52918;SDS011;38793;52.690;6.812;2023-08-20T13:17:35;1.23;;;0.25;;
52918;SDS011;38793;52.690;6.812;2023-08-20T13:20:02;3.05;;;0.20;;
52918;SDS011;38793;52.690;6.812;2023-08-20T13:22:28;1.77;;;0.20;;
52918;SDS011;38793;52.690;6.812;2023-08-20T13:24:53;3.67;;;0.20;;
52918;SDS011;38793;52.690;6.812;2023-08-20T13:27:19;1.50;;;0.20;;
52918;SDS011;38793;52.690;6.812;2023-08-20T13:29:45;2.55;;;0.20;;
52918;SDS011;38793;52.690;6.812;2023-08-20T13:32:10;4.05;;;0.20;;
52918;SDS011;38793;52.690;6.812;2023-08-20T13:34:36;14.02;;;0.38;;
52918;SDS011;38793;52.690;6.812;2023-08-20T13:37:01;33.85;;;2.28;;
52918;SDS011;38793;52.690;6.812;2023-08-20T13:39:27;18.63;;;0.82;;
52918;SDS011;38793;52.690;6.812;2023-08-20T13:41:52;31.17;;;1.00;;
52918;SDS011;38793;52.690;6.812;2023-08-20T13:44:19;11.45;;;0.85;;
52918;SDS011;38793;52.690;6.812;2023-08-20T13:46:45;20.27;;;1.40;;
52918;SDS011;38793;52.690;6.812;2023-08-20T13:49:11;23.27;;;2.25;;
52918;SDS011;38793;52.690;6.812;2023-08-20T13:51:36;19.75;;;1.27;;
52918;SDS011;38793;52.690;6.812;2023-08-20T13:54:02;8.10;;;0.90;;
52918;SDS011;38793;52.690;6.812;2023-08-20T13:56:28;61.70;;;4.75;;
52918;SDS011;38793;52.690;6.812;2023-08-20T13:58:54;7.03;;;0.60;;
52918;SDS011;38793;52.690;6.812;2023-08-20T14:01:19;2.58;;;0.50;;
52918;SDS011;38793;52.690;6.812;2023-08-20T14:03:45;2.72;;;0.40;;
52918;SDS011;38793;52.690;6.812;2023-08-20T14:06:11;7.57;;;0.70;;
52918;SDS011;38793;52.690;6.812;2023-08-20T14:08:36;3.22;;;0.43;;
52918;SDS011;38793;52.690;6.812;2023-08-20T14:11:02;3.28;;;0.22;;
52918;SDS011;38793;52.690;6.812;2023-08-20T14:13:28;5.03;;;0.30;;
52918;SDS011;38793;52.690;6.812;2023-08-20T14:15:54;3.65;;;0.50;;
52918;SDS011;38793;52.690;6.812;2023-08-20T14:18:19;3.38;;;0.20;;
52918;SDS011;38793;52.690;6.812;2023-08-20T14:20:45;2.45;;;0.20;;
52918;SDS011;38793;52.690;6.812;2023-08-20T14:23:11;3.58;;;0.30;;
52918;SDS011;38793;52.690;6.812;2023-08-20T14:25:37;4.43;;;0.40;;
52918;SDS011;38793;52.690;6.812;2023-08-20T14:28:05;4.40;;;0.40;;
52918;SDS011;38793;52.690;6.812;2023-08-20T14:30:31;6.25;;;0.55;;
52918;SDS011;38793;52.690;6.812;2023-08-20T14:33:00;2.85;;;0.30;;
52918;SDS011;38793;52.690;6.812;2023-08-20T14:35:26;4.72;;;0.40;;
52918;SDS011;38793;52.690;6.812;2023-08-20T14:37:52;3.30;;;0.25;;
52918;SDS011;38793;52.690;6.812;2023-08-20T14:40:19;2.53;;;0.30;;
52918;SDS011;38793;52.690;6.812;2023-08-20T14:42:44;5.10;;;0.60;;
52918;SDS011;38793;52.690;6.812;2023-08-20T14:45:10;1.08;;;0.20;;
52918;SDS011;38793;52.690;6.812;2023-08-20T14:47:36;6.72;;;0.30;;
52918;SDS011;38793;52.690;6.812;2023-08-20T14:50:02;2.03;;;0.30;;
52918;SDS011;38793;52.690;6.812;2023-08-20T14:52:28;1.52;;;0.28;;
52918;SDS011;38793;52.690;6.812;2023-08-20T14:54:54;4.38;;;0.30;;
52918;SDS011;38793;52.690;6.812;2023-08-20T14:57:19;4.38;;;0.35;;
52918;SDS011;38793;52.690;6.812;2023-08-20T14:59:45;1.35;;;0.10;;
52918;SDS011;38793;52.690;6.812;2023-08-20T15:02:10;1.42;;;0.20;;
52918;SDS011;38793;52.690;6.812;2023-08-20T15:04:36;1.00;;;0.30;;
52918;SDS011;38793;52.690;6.812;2023-08-20T15:07:02;3.85;;;0.30;;
52918;SDS011;38793;52.690;6.812;2023-08-20T15:09:28;5.85;;;0.57;;
52918;SDS011;38793;52.690;6.812;2023-08-20T15:11:54;2.95;;;0.20;;
52918;SDS011;38793;52.690;6.812;2023-08-20T15:14:19;2.13;;;0.38;;
52918;SDS011;38793;52.690;6.812;2023-08-20T15:16:45;2.60;;;0.40;;
52918;SDS011;38793;52.690;6.812;2023-08-20T15:19:10;2.00;;;0.40;;
52918;SDS011;38793;52.690;6.812;2023-08-20T15:21:36;1.55;;;0.20;;
52918;SDS011;38793;52.690;6.812;2023-08-20T15:24:02;3.97;;;0.32;;
52918;SDS011;38793;52.690;6.812;2023-08-20T15:26:29;7.57;;;0.40;;
52918;SDS011;38793;52.690;6.812;2023-08-20T15:28:55;2.20;;;0.20;;
52918;SDS011;38793;52.690;6.812;2023-08-20T15:31:21;5.10;;;0.30;;
52918;SDS011;38793;52.690;6.812;2023-08-20T15:33:46;3.30;;;0.25;;
52918;SDS011;38793;52.690;6.812;2023-08-20T15:36:12;1.20;;;0.20;;
52918;SDS011;38793;52.690;6.812;2023-08-20T15:38:38;3.53;;;0.45;;
52918;SDS011;38793;52.690;6.812;2023-08-20T15:41:03;3.30;;;0.20;;
52918;SDS011;38793;52.690;6.812;2023-08-20T15:43:30;5.28;;;0.38;;
52918;SDS011;38793;52.690;6.812;2023-08-20T15:45:55;3.45;;;0.30;;
52918;SDS011;38793;52.690;6.812;2023-08-20T15:48:21;1.10;;;0.25;;
52918;SDS011;38793;52.690;6.812;2023-08-20T15:50:47;0.80;;;0.20;;